sensor_id;sensor_type;location;lat;lon;timestamp;P1;durP1;ratioP1;P2;durP2;ratioP2
70635;SDS011;58206;47.310;19.502;2024-03-17T03:58:48;0.00;;;0.00;;
70635;SDS011;58206;47.310;19.502;2024-03-17T04:01:34;0.00;;;0.00;;
70635;SDS011;58206;47.310;19.502;2024-03-17T04:04:18;0.30;;;0.10;;
70635;SDS011;58206;47.310;19.502;2024-03-17T04:07:03;0.10;;;0.00;;
70635;SDS011;58206;47.310;19.502;2024-03-17T04:09:48;0.00;;;0.00;;
70635;SDS011;58206;47.310;19.502;2024-03-17T04:12:32;1.33;;;0.75;;
70635;SDS011;58206;47.310;19.502;2024-03-17T04:15:17;0.52;;;0.52;;
70635;SDS011;58206;47.310;19.502;2024-03-17T04:18:01;0.20;;;0.10;;
70635;SDS011;58206;47.310;19.502;2024-03-17T04:20:46;0.00;;;0.00;;
70635;SDS011;58206;47.310;19.502;2024-03-17T04:23:30;0.00;;;0.00;;
70635;SDS011;58206;47.310;19.502;2024-03-17T04:26:17;0.00;;;0.00;;
70635;SDS011;58206;47.310;19.502;2024-03-17T04:29:02;0.00;;;0.00;;
70635;SDS011;58206;47.310;19.502;2024-03-17T04:31:46;0.00;;;0.00;;
70635;SDS011;58206;47.310;19.502;2024-03-17T04:34:32;0.00;;;0.00;;
70635;SDS011;58206;47.310;19.502;2024-03-17T04:37:17;0.68;;;0.55;;
70635;SDS011;58206;47.310;19.502;2024-03-17T04:40:01;2.15;;;1.42;;
70635;SDS011;58206;47.310;19.502;2024-03-17T04:42:49;0.00;;;0.00;;
70635;SDS011;58206;47.310;19.502;2024-03-17T04:45:34;0.03;;;0.00;;
70635;SDS011;58206;47.310;19.502;2024-03-17T04:48:18;0.20;;;0.10;;
70635;SDS011;58206;47.310;19.502;2024-03-17T04:51:02;0.40;;;0.28;;
70635;SDS011;58206;47.310;19.502;2024-03-17T04:53:47;0.00;;;0.00;;
70635;SDS011;58206;47.310;19.502;2024-03-17T04:56:32;0.22;;;0.22;;
70635;SDS011;58206;47.310;19.502;2024-03-17T04:59:17;0.20;;;0.10;;
70635;SDS011;58206;47.310;19.502;2024-03-17T05:02:01;0.00;;;0.00;;
70635;SDS011;58206;47.310;19.502;2024-03-17T05:04:46;0.15;;;0.10;;
70635;SDS011;58206;47.310;19.502;2024-03-17T05:07:32;0.20;;;0.00;;
70635;SDS011;58206;47.310;19.502;2024-03-17T05:10:16;0.00;;;0.00;;
70635;SDS011;58206;47.310;19.502;2024-03-17T05:13:00;0.00;;;0.00;;
70635;SDS011;58206;47.310;19.502;2024-03-17T05:15:45;0.10;;;0.00;;
70635;SDS011;58206;47.310;19.502;2024-03-17T05:18:30;0.52;;;0.20;;
70635;SDS011;58206;47.310;19.502;2024-03-17T05:21:16;0.10;;;0.00;;
70635;SDS011;58206;47.310;19.502;2024-03-17T05:24:01;0.10;;;0.00;;
70635;SDS011;58206;47.310;19.502;2024-03-17T05:26:45;0.10;;;0.00;;
70635;SDS011;58206;47.310;19.502;2024-03-17T05:29:30;1.00;;;0.57;;
70635;SDS011;58206;47.310;19.502;2024-03-17T05:32:14;0.28;;;0.08;;
70635;SDS011;58206;47.310;19.502;2024-03-17T05:34:58;0.28;;;0.20;;
70635;SDS011;58206;47.310;19.502;2024-03-17T05:37:43;0.25;;;0.05;;
70635;SDS011;58206;47.310;19.502;2024-03-17T05:40:27;0.10;;;0.00;;
70635;SDS011;58206;47.310;19.502;2024-03-17T05:43:11;0.23;;;0.13;;
70635;SDS011;58206;47.310;19.502;2024-03-17T05:45:56;0.10;;;0.00;;
70635;SDS011;58206;47.310;19.502;2024-03-17T05:48:41;0.10;;;0.00;;
70635;SDS011;58206;47.310;19.502;2024-03-17T05:51:26;0.20;;;0.00;;
70635;SDS011;58206;47.310;19.502;2024-03-17T05:54:11;0.20;;;0.00;;
70635;SDS011;58206;47.310;19.502;2024-03-17T05:56:56;0.30;;;0.13;;
70635;SDS011;58206;47.310;19.502;2024-03-17T05:59:40;0.10;;;0.00;;
70635;SDS011;58206;47.310;19.502;2024-03-17T06:02:24;0.45;;;0.20;;
70635;SDS011;58206;47.310;19.502;2024-03-17T06:05:09;0.28;;;0.00;;
70635;SDS011;58206;47.310;19.502;2024-03-17T06:07:56;0.22;;;0.00;;
70635;SDS011;58206;47.310;19.502;2024-03-17T06:10:44;0.30;;;0.10;;
70635;SDS011;58206;47.310;19.502;2024-03-17T06:13:29;0.40;;;0.10;;
70635;SDS011;58206;47.310;19.502;2024-03-17T06:16:13;0.60;;;0.20;;
70635;SDS011;58206;47.310;19.502;2024-03-17T06:18:58;0.70;;;0.25;;
70635;SDS011;58206;47.310;19.502;2024-03-17T06:21:43;2.95;;;0.68;;
70635;SDS011;58206;47.310;19.502;2024-03-17T06:24:28;1.10;;;0.40;;
70635;SDS011;58206;47.310;19.502;2024-03-17T06:27:12;1.33;;;0.60;;
70635;SDS011;58206;47.310;19.502;2024-03-17T06:29:56;1.73;;;0.77;;
70635;SDS011;58206;47.310;19.502;2024-03-17T06:32:41;1.20;;;0.40;;
70635;SDS011;58206;47.310;19.502;2024-03-17T06:35:26;1.13;;;0.40;;
70635;SDS011;58206;47.310;19.502;2024-03-17T06:38:10;1.47;;;0.70;;
70635;SDS011;58206;47.310;19.502;2024-03-17T06:40:56;2.05;;;0.63;;
70635;SDS011;58206;47.310;19.502;2024-03-17T06:43:41;1.52;;;0.60;;
70635;SDS011;58206;47.310;19.502;2024-03-17T06:46:27;1.50;;;0.70;;
70635;SDS011;58206;47.310;19.502;2024-03-17T06:49:11;1.10;;;0.40;;
70635;SDS011;58206;47.310;19.502;2024-03-17T06:51:56;1.33;;;0.43;;
70635;SDS011;58206;47.310;19.502;2024-03-17T06:54:40;1.52;;;0.75;;
70635;SDS011;58206;47.310;19.502;2024-03-17T06:57:24;1.23;;;0.60;;
70635;SDS011;58206;47.310;19.502;2024-03-17T07:00:11;1.30;;;0.43;;
70635;SDS011;58206;47.310;19.502;2024-03-17T07:02:58;1.00;;;0.50;;
70635;SDS011;58206;47.310;19.502;2024-03-17T07:05:42;4.10;;;1.37;;
70635;SDS011;58206;47.310;19.502;2024-03-17T07:08:26;1.35;;;0.47;;
70635;SDS011;58206;47.310;19.502;2024-03-17T07:11:11;1.23;;;0.40;;
70635;SDS011;58206;47.310;19.502;2024-03-17T07:13:55;1.30;;;0.60;;
70635;SDS011;58206;47.310;19.502;2024-03-17T07:16:39;1.10;;;0.40;;
70635;SDS011;58206;47.310;19.502;2024-03-17T07:19:24;1.83;;;0.77;;
70635;SDS011;58206;47.310;19.502;2024-03-17T07:22:08;1.85;;;0.90;;
70635;SDS011;58206;47.310;19.502;2024-03-17T07:24:53;1.77;;;0.85;;
70635;SDS011;58206;47.310;19.502;2024-03-17T07:27:44;1.77;;;0.90;;
70635;SDS011;58206;47.310;19.502;2024-03-17T07:30:29;1.85;;;0.80;;
70635;SDS011;58206;47.310;19.502;2024-03-17T07:33:13;1.90;;;0.80;;
70635;SDS011;58206;47.310;19.502;2024-03-17T07:35:58;2.00;;;0.80;;
70635;SDS011;58206;47.310;19.502;2024-03-17T07:38:44;2.15;;;0.93;;
70635;SDS011;58206;47.310;19.502;2024-03-17T07:41:29;12.40;;;1.23;;
70635;SDS011;58206;47.310;19.502;2024-03-17T07:44:13;2.20;;;0.90;;
70635;SDS011;58206;47.310;19.502;2024-03-17T07:46:59;2.37;;;1.17;;
70635;SDS011;58206;47.310;19.502;2024-03-17T07:49:45;2.45;;;1.02;;
70635;SDS011;58206;47.310;19.502;2024-03-17T07:52:30;3.50;;;1.42;;
70635;SDS011;58206;47.310;19.502;2024-03-17T07:55:14;2.20;;;0.93;;
70635;SDS011;58206;47.310;19.502;2024-03-17T07:57:58;2.47;;;1.20;;
70635;SDS011;58206;47.310;19.502;2024-03-17T08:00:43;2.30;;;0.90;;
70635;SDS011;58206;47.310;19.502;2024-03-17T08:03:27;3.17;;;1.52;;
70635;SDS011;58206;47.310;19.502;2024-03-17T08:06:12;1.88;;;0.77;;
70635;SDS011;58206;47.310;19.502;2024-03-17T08:08:56;2.90;;;1.27;;
70635;SDS011;58206;47.310;19.502;2024-03-17T08:11:41;3.10;;;1.08;;
70635;SDS011;58206;47.310;19.502;2024-03-17T08:14:30;1.90;;;0.80;;
70635;SDS011;58206;47.310;19.502;2024-03-17T08:17:15;1.90;;;0.90;;
70635;SDS011;58206;47.310;19.502;2024-03-17T08:19:59;2.10;;;0.90;;
70635;SDS011;58206;47.310;19.502;2024-03-17T08:22:43;1.80;;;0.80;;
70635;SDS011;58206;47.310;19.502;2024-03-17T08:25:28;1.77;;;0.70;;
70635;SDS011;58206;47.310;19.502;2024-03-17T08:28:12;1.40;;;0.50;;
70635;SDS011;58206;47.310;19.502;2024-03-17T08:31:00;0.80;;;0.30;;
70635;SDS011;58206;47.310;19.502;2024-03-17T08:33:45;3.08;;;0.77;;
70635;SDS011;58206;47.310;19.502;2024-03-17T08:36:31;2.40;;;0.93;;
70635;SDS011;58206;47.310;19.502;2024-03-17T08:39:15;1.65;;;0.73;;
70635;SDS011;58206;47.310;19.502;2024-03-17T08:41:59;2.20;;;0.97;;
70635;SDS011;58206;47.310;19.502;2024-03-17T08:44:47;3.85;;;1.08;;
70635;SDS011;58206;47.310;19.502;2024-03-17T08:47:31;1.95;;;0.82;;
70635;SDS011;58206;47.310;19.502;2024-03-17T08:50:16;2.53;;;1.15;;
70635;SDS011;58206;47.310;19.502;2024-03-17T08:53:00;2.30;;;1.00;;
70635;SDS011;58206;47.310;19.502;2024-03-17T08:55:44;2.20;;;0.90;;
70635;SDS011;58206;47.310;19.502;2024-03-17T08:58:28;3.20;;;1.45;;
70635;SDS011;58206;47.310;19.502;2024-03-17T09:01:13;2.20;;;0.90;;
70635;SDS011;58206;47.310;19.502;2024-03-17T09:03:58;4.50;;;1.45;;
70635;SDS011;58206;47.310;19.502;2024-03-17T09:06:45;2.40;;;1.10;;
70635;SDS011;58206;47.310;19.502;2024-03-17T09:09:30;2.87;;;1.37;;
70635;SDS011;58206;47.310;19.502;2024-03-17T09:12:14;3.38;;;1.48;;
70635;SDS011;58206;47.310;19.502;2024-03-17T09:14:59;3.70;;;1.40;;
70635;SDS011;58206;47.310;19.502;2024-03-17T09:17:43;2.38;;;0.98;;
70635;SDS011;58206;47.310;19.502;2024-03-17T09:20:28;3.08;;;1.10;;
70635;SDS011;58206;47.310;19.502;2024-03-17T09:23:12;2.40;;;0.90;;
70635;SDS011;58206;47.310;19.502;2024-03-17T09:26:01;2.38;;;1.08;;
70635;SDS011;58206;47.310;19.502;2024-03-17T09:28:46;2.55;;;1.27;;
70635;SDS011;58206;47.310;19.502;2024-03-17T09:31:31;2.42;;;1.05;;
70635;SDS011;58206;47.310;19.502;2024-03-17T09:34:17;2.40;;;1.15;;
70635;SDS011;58206;47.310;19.502;2024-03-17T09:37:02;2.20;;;1.00;;
70635;SDS011;58206;47.310;19.502;2024-03-17T09:39:47;2.33;;;1.20;;
70635;SDS011;58206;47.310;19.502;2024-03-17T09:42:33;2.95;;;1.10;;
70635;SDS011;58206;47.310;19.502;2024-03-17T09:45:17;3.72;;;1.10;;
70635;SDS011;58206;47.310;19.502;2024-03-17T09:48:02;2.47;;;0.95;;
70635;SDS011;58206;47.310;19.502;2024-03-17T09:50:49;2.20;;;0.90;;
70635;SDS011;58206;47.310;19.502;2024-03-17T09:53:35;2.50;;;1.10;;
70635;SDS011;58206;47.310;19.502;2024-03-17T09:56:20;2.03;;;0.90;;
70635;SDS011;58206;47.310;19.502;2024-03-17T09:59:05;3.55;;;1.35;;
70635;SDS011;58206;47.310;19.502;2024-03-17T10:01:50;2.15;;;0.95;;
70635;SDS011;58206;47.310;19.502;2024-03-17T10:04:34;5.53;;;1.33;;
70635;SDS011;58206;47.310;19.502;2024-03-17T10:07:19;7.40;;;1.30;;
70635;SDS011;58206;47.310;19.502;2024-03-17T10:10:21;2.58;;;1.23;;
70635;SDS011;58206;47.310;19.502;2024-03-17T10:13:05;1.95;;;0.82;;
70635;SDS011;58206;47.310;19.502;2024-03-17T10:15:52;6.38;;;1.50;;
70635;SDS011;58206;47.310;19.502;2024-03-17T10:18:37;2.30;;;1.07;;
70635;SDS011;58206;47.310;19.502;2024-03-17T10:21:24;3.42;;;1.20;;
70635;SDS011;58206;47.310;19.502;2024-03-17T10:24:13;3.20;;;1.25;;
70635;SDS011;58206;47.310;19.502;2024-03-17T10:26:58;2.72;;;1.23;;
70635;SDS011;58206;47.310;19.502;2024-03-17T10:29:43;2.30;;;1.25;;
70635;SDS011;58206;47.310;19.502;2024-03-17T10:32:30;2.60;;;1.20;;
70635;SDS011;58206;47.310;19.502;2024-03-17T10:38:29;2.35;;;1.00;;
70635;SDS011;58206;47.310;19.502;2024-03-17T10:41:13;3.38;;;1.35;;
70635;SDS011;58206;47.310;19.502;2024-03-17T10:43:58;2.30;;;1.08;;
70635;SDS011;58206;47.310;19.502;2024-03-17T10:46:44;2.17;;;0.90;;
70635;SDS011;58206;47.310;19.502;2024-03-17T10:49:30;2.70;;;1.23;;
70635;SDS011;58206;47.310;19.502;2024-03-17T10:52:18;2.08;;;0.80;;
70635;SDS011;58206;47.310;19.502;2024-03-17T10:55:04;4.25;;;0.60;;
70635;SDS011;58206;47.310;19.502;2024-03-17T10:57:56;1.27;;;0.47;;
70635;SDS011;58206;47.310;19.502;2024-03-17T11:00:42;1.00;;;0.30;;
70635;SDS011;58206;47.310;19.502;2024-03-17T11:03:26;1.83;;;0.50;;
70635;SDS011;58206;47.310;19.502;2024-03-17T11:06:11;1.25;;;0.40;;
70635;SDS011;58206;47.310;19.502;2024-03-17T11:08:55;1.20;;;0.40;;
70635;SDS011;58206;47.310;19.502;2024-03-17T11:11:40;1.00;;;0.30;;
70635;SDS011;58206;47.310;19.502;2024-03-17T11:14:26;1.43;;;0.30;;
70635;SDS011;58206;47.310;19.502;2024-03-17T11:17:18;0.68;;;0.22;;
70635;SDS011;58206;47.310;19.502;2024-03-17T11:20:36;0.63;;;0.30;;
70635;SDS011;58206;47.310;19.502;2024-03-17T11:23:25;0.28;;;0.10;;
70635;SDS011;58206;47.310;19.502;2024-03-17T11:26:10;1.33;;;0.47;;
70635;SDS011;58206;47.310;19.502;2024-03-17T11:28:54;1.20;;;0.37;;
70635;SDS011;58206;47.310;19.502;2024-03-17T11:31:44;2.13;;;0.50;;
70635;SDS011;58206;47.310;19.502;2024-03-17T11:34:32;0.85;;;0.30;;
70635;SDS011;58206;47.310;19.502;2024-03-17T11:40:24;1.58;;;0.73;;
70635;SDS011;58206;47.310;19.502;2024-03-17T11:43:12;0.80;;;0.20;;
70635;SDS011;58206;47.310;19.502;2024-03-17T11:46:00;1.13;;;0.35;;
70635;SDS011;58206;47.310;19.502;2024-03-17T11:48:45;0.68;;;0.20;;
70635;SDS011;58206;47.310;19.502;2024-03-17T11:51:29;0.80;;;0.28;;
70635;SDS011;58206;47.310;19.502;2024-03-17T11:54:14;0.77;;;0.28;;
70635;SDS011;58206;47.310;19.502;2024-03-17T11:57:03;0.30;;;0.10;;
70635;SDS011;58206;47.310;19.502;2024-03-17T11:59:48;0.75;;;0.20;;
70635;SDS011;58206;47.310;19.502;2024-03-17T12:02:33;1.08;;;0.40;;
70635;SDS011;58206;47.310;19.502;2024-03-17T12:05:18;0.65;;;0.20;;
70635;SDS011;58206;47.310;19.502;2024-03-17T12:08:05;0.63;;;0.20;;
70635;SDS011;58206;47.310;19.502;2024-03-17T12:11:01;0.90;;;0.33;;
70635;SDS011;58206;47.310;19.502;2024-03-17T12:13:46;1.20;;;0.50;;
70635;SDS011;58206;47.310;19.502;2024-03-17T12:16:31;0.93;;;0.25;;
70635;SDS011;58206;47.310;19.502;2024-03-17T12:19:16;1.08;;;0.35;;
70635;SDS011;58206;47.310;19.502;2024-03-17T12:22:01;1.23;;;0.47;;
70635;SDS011;58206;47.310;19.502;2024-03-17T12:24:45;1.70;;;0.53;;
70635;SDS011;58206;47.310;19.502;2024-03-17T12:27:30;1.20;;;0.50;;
70635;SDS011;58206;47.310;19.502;2024-03-17T12:30:15;1.58;;;0.45;;
70635;SDS011;58206;47.310;19.502;2024-03-17T12:32:59;0.98;;;0.30;;
70635;SDS011;58206;47.310;19.502;2024-03-17T12:35:44;1.48;;;0.57;;
70635;SDS011;58206;47.310;19.502;2024-03-17T12:38:29;2.20;;;0.57;;
70635;SDS011;58206;47.310;19.502;2024-03-17T12:41:16;1.42;;;0.60;;
70635;SDS011;58206;47.310;19.502;2024-03-17T12:44:01;1.15;;;0.30;;
70635;SDS011;58206;47.310;19.502;2024-03-17T12:46:45;0.60;;;0.20;;
70635;SDS011;58206;47.310;19.502;2024-03-17T12:49:31;0.80;;;0.25;;
70635;SDS011;58206;47.310;19.502;2024-03-17T12:52:28;0.70;;;0.20;;
70635;SDS011;58206;47.310;19.502;2024-03-17T12:55:15;0.45;;;0.15;;
70635;SDS011;58206;47.310;19.502;2024-03-17T12:58:21;0.77;;;0.30;;
70635;SDS011;58206;47.310;19.502;2024-03-17T13:01:40;1.05;;;0.40;;
70635;SDS011;58206;47.310;19.502;2024-03-17T13:04:25;1.05;;;0.63;;
70635;SDS011;58206;47.310;19.502;2024-03-17T13:07:10;0.50;;;0.20;;
70635;SDS011;58206;47.310;19.502;2024-03-17T13:09:55;0.85;;;0.30;;
70635;SDS011;58206;47.310;19.502;2024-03-17T13:12:40;0.65;;;0.17;;
70635;SDS011;58206;47.310;19.502;2024-03-17T13:15:25;0.52;;;0.17;;
70635;SDS011;58206;47.310;19.502;2024-03-17T13:18:11;0.30;;;0.10;;
70635;SDS011;58206;47.310;19.502;2024-03-17T13:21:00;0.70;;;0.30;;
70635;SDS011;58206;47.310;19.502;2024-03-17T13:23:45;0.88;;;0.30;;
70635;SDS011;58206;47.310;19.502;2024-03-17T13:26:29;0.20;;;0.00;;
70635;SDS011;58206;47.310;19.502;2024-03-17T13:29:14;0.30;;;0.10;;
70635;SDS011;58206;47.310;19.502;2024-03-17T13:31:58;2.50;;;0.55;;
70635;SDS011;58206;47.310;19.502;2024-03-17T13:34:43;0.30;;;0.10;;
70635;SDS011;58206;47.310;19.502;2024-03-17T13:37:29;0.50;;;0.15;;
70635;SDS011;58206;47.310;19.502;2024-03-17T13:40:14;3.78;;;0.63;;
70635;SDS011;58206;47.310;19.502;2024-03-17T13:43:00;0.95;;;0.43;;
70635;SDS011;58206;47.310;19.502;2024-03-17T13:45:45;1.10;;;0.40;;
70635;SDS011;58206;47.310;19.502;2024-03-17T13:48:31;1.07;;;0.40;;
70635;SDS011;58206;47.310;19.502;2024-03-17T13:51:19;0.30;;;0.10;;
70635;SDS011;58206;47.310;19.502;2024-03-17T13:54:04;0.30;;;0.10;;
70635;SDS011;58206;47.310;19.502;2024-03-17T13:56:48;2.58;;;1.77;;
70635;SDS011;58206;47.310;19.502;2024-03-17T13:59:32;2.00;;;0.90;;
70635;SDS011;58206;47.310;19.502;2024-03-17T14:02:17;0.90;;;0.40;;
70635;SDS011;58206;47.310;19.502;2024-03-17T14:05:01;0.57;;;0.22;;
70635;SDS011;58206;47.310;19.502;2024-03-17T14:07:46;1.08;;;0.40;;
70635;SDS011;58206;47.310;19.502;2024-03-17T14:10:34;0.60;;;0.20;;
70635;SDS011;58206;47.310;19.502;2024-03-17T14:13:19;0.68;;;0.22;;
70635;SDS011;58206;47.310;19.502;2024-03-17T14:16:03;0.20;;;0.00;;
70635;SDS011;58206;47.310;19.502;2024-03-17T14:18:48;0.45;;;0.10;;
70635;SDS011;58206;47.310;19.502;2024-03-17T14:21:32;9.55;;;0.43;;
70635;SDS011;58206;47.310;19.502;2024-03-17T14:24:17;1.77;;;0.60;;
70635;SDS011;58206;47.310;19.502;2024-03-17T14:27:01;0.77;;;0.30;;
70635;SDS011;58206;47.310;19.502;2024-03-17T14:29:45;0.30;;;0.10;;
70635;SDS011;58206;47.310;19.502;2024-03-17T14:32:30;0.40;;;0.10;;
70635;SDS011;58206;47.310;19.502;2024-03-17T14:35:16;0.77;;;0.30;;
70635;SDS011;58206;47.310;19.502;2024-03-17T14:38:00;0.30;;;0.10;;
70635;SDS011;58206;47.310;19.502;2024-03-17T14:40:44;0.75;;;0.20;;
70635;SDS011;58206;47.310;19.502;2024-03-17T14:43:29;0.47;;;0.10;;
70635;SDS011;58206;47.310;19.502;2024-03-17T14:46:14;2.63;;;0.38;;
70635;SDS011;58206;47.310;19.502;2024-03-17T14:48:58;0.10;;;0.00;;
70635;SDS011;58206;47.310;19.502;2024-03-17T14:51:43;0.85;;;0.10;;
70635;SDS011;58206;47.310;19.502;2024-03-17T14:54:27;0.50;;;0.20;;
70635;SDS011;58206;47.310;19.502;2024-03-17T14:57:12;1.07;;;0.60;;
70635;SDS011;58206;47.310;19.502;2024-03-17T14:59:59;4.13;;;1.10;;
70635;SDS011;58206;47.310;19.502;2024-03-17T15:02:45;0.75;;;0.25;;
70635;SDS011;58206;47.310;19.502;2024-03-17T15:05:31;0.40;;;0.20;;
70635;SDS011;58206;47.310;19.502;2024-03-17T15:08:16;0.55;;;0.13;;
70635;SDS011;58206;47.310;19.502;2024-03-17T15:11:01;0.30;;;0.10;;
70635;SDS011;58206;47.310;19.502;2024-03-17T15:13:45;0.60;;;0.20;;
70635;SDS011;58206;47.310;19.502;2024-03-17T15:16:30;0.50;;;0.10;;
70635;SDS011;58206;47.310;19.502;2024-03-17T15:19:15;0.70;;;0.22;;
70635;SDS011;58206;47.310;19.502;2024-03-17T15:21:59;0.35;;;0.08;;
70635;SDS011;58206;47.310;19.502;2024-03-17T15:24:44;0.20;;;0.00;;
70635;SDS011;58206;47.310;19.502;2024-03-17T15:27:28;0.98;;;0.28;;
70635;SDS011;58206;47.310;19.502;2024-03-17T15:30:16;0.95;;;0.20;;
70635;SDS011;58206;47.310;19.502;2024-03-17T15:33:03;0.77;;;0.32;;
70635;SDS011;58206;47.310;19.502;2024-03-17T15:35:47;0.63;;;0.20;;
70635;SDS011;58206;47.310;19.502;2024-03-17T15:38:34;0.20;;;0.00;;
70635;SDS011;58206;47.310;19.502;2024-03-17T15:41:19;0.52;;;0.10;;
70635;SDS011;58206;47.310;19.502;2024-03-17T15:44:04;0.10;;;0.00;;
70635;SDS011;58206;47.310;19.502;2024-03-17T15:46:48;0.22;;;0.00;;
70635;SDS011;58206;47.310;19.502;2024-03-17T15:49:33;0.20;;;0.00;;
70635;SDS011;58206;47.310;19.502;2024-03-17T15:52:17;0.03;;;0.00;;
70635;SDS011;58206;47.310;19.502;2024-03-17T15:55:02;0.40;;;0.10;;
70635;SDS011;58206;47.310;19.502;2024-03-17T15:57:47;0.50;;;0.30;;
70635;SDS011;58206;47.310;19.502;2024-03-17T16:00:31;0.30;;;0.10;;
70635;SDS011;58206;47.310;19.502;2024-03-17T16:03:16;0.30;;;0.10;;
70635;SDS011;58206;47.310;19.502;2024-03-17T16:06:10;0.57;;;0.23;;
70635;SDS011;58206;47.310;19.502;2024-03-17T16:08:54;0.38;;;0.20;;
70635;SDS011;58206;47.310;19.502;2024-03-17T16:11:39;0.45;;;0.17;;
70635;SDS011;58206;47.310;19.502;2024-03-17T16:14:24;1.70;;;0.73;;
70635;SDS011;58206;47.310;19.502;2024-03-17T16:17:09;0.85;;;0.65;;
70635;SDS011;58206;47.310;19.502;2024-03-17T16:19:54;0.87;;;0.30;;
70635;SDS011;58206;47.310;19.502;2024-03-17T16:22:38;0.70;;;0.20;;
70635;SDS011;58206;47.310;19.502;2024-03-17T16:25:22;0.40;;;0.10;;
70635;SDS011;58206;47.310;19.502;2024-03-17T16:28:08;0.60;;;0.20;;
70635;SDS011;58206;47.310;19.502;2024-03-17T16:30:53;0.75;;;0.38;;
70635;SDS011;58206;47.310;19.502;2024-03-17T16:33:39;0.67;;;0.20;;
70635;SDS011;58206;47.310;19.502;2024-03-17T16:36:23;0.47;;;0.10;;
70635;SDS011;58206;47.310;19.502;2024-03-17T16:39:09;0.57;;;0.40;;
70635;SDS011;58206;47.310;19.502;2024-03-17T16:41:55;0.65;;;0.32;;
70635;SDS011;58206;47.310;19.502;2024-03-17T16:44:52;0.50;;;0.13;;
70635;SDS011;58206;47.310;19.502;2024-03-17T16:47:38;0.80;;;0.30;;
70635;SDS011;58206;47.310;19.502;2024-03-17T16:50:23;0.25;;;0.10;;
70635;SDS011;58206;47.310;19.502;2024-03-17T16:53:07;0.40;;;0.20;;
70635;SDS011;58206;47.310;19.502;2024-03-17T16:55:52;0.60;;;0.30;;
70635;SDS011;58206;47.310;19.502;2024-03-17T16:58:36;0.25;;;0.10;;
70635;SDS011;58206;47.310;19.502;2024-03-17T17:01:21;0.63;;;0.50;;
70635;SDS011;58206;47.310;19.502;2024-03-17T17:04:05;1.13;;;0.50;;
70635;SDS011;58206;47.310;19.502;2024-03-17T17:06:53;0.00;;;0.00;;
70635;SDS011;58206;47.310;19.502;2024-03-17T17:09:38;0.30;;;0.10;;
70635;SDS011;58206;47.310;19.502;2024-03-17T17:12:23;0.10;;;0.00;;
70635;SDS011;58206;47.310;19.502;2024-03-17T17:15:11;0.00;;;0.00;;
70635;SDS011;58206;47.310;19.502;2024-03-17T17:17:57;0.40;;;0.20;;
70635;SDS011;58206;47.310;19.502;2024-03-17T17:20:42;0.40;;;0.10;;
70635;SDS011;58206;47.310;19.502;2024-03-17T17:23:26;2.08;;;0.82;;
70635;SDS011;58206;47.310;19.502;2024-03-17T17:26:10;0.40;;;0.10;;
70635;SDS011;58206;47.310;19.502;2024-03-17T17:28:55;0.87;;;0.43;;
70635;SDS011;58206;47.310;19.502;2024-03-17T17:31:40;1.33;;;0.60;;
70635;SDS011;58206;47.310;19.502;2024-03-17T17:34:26;3.45;;;2.50;;
70635;SDS011;58206;47.310;19.502;2024-03-17T17:37:10;2.95;;;2.10;;
70635;SDS011;58206;47.310;19.502;2024-03-17T17:39:56;1.42;;;0.90;;
70635;SDS011;58206;47.310;19.502;2024-03-17T17:42:41;0.47;;;0.17;;
70635;SDS011;58206;47.310;19.502;2024-03-17T17:45:25;2.72;;;0.95;;
70635;SDS011;58206;47.310;19.502;2024-03-17T17:48:10;0.32;;;0.10;;
70635;SDS011;58206;47.310;19.502;2024-03-17T17:50:54;1.58;;;1.35;;
70635;SDS011;58206;47.310;19.502;2024-03-17T17:53:40;2.05;;;1.40;;
70635;SDS011;58206;47.310;19.502;2024-03-17T17:56:25;0.77;;;0.60;;
70635;SDS011;58206;47.310;19.502;2024-03-17T17:59:09;1.38;;;0.95;;
70635;SDS011;58206;47.310;19.502;2024-03-17T18:01:54;1.65;;;1.13;;
70635;SDS011;58206;47.310;19.502;2024-03-17T18:04:39;0.32;;;0.10;;
70635;SDS011;58206;47.310;19.502;2024-03-17T18:07:23;0.57;;;0.15;;
70635;SDS011;58206;47.310;19.502;2024-03-17T18:10:07;0.50;;;0.20;;
70635;SDS011;58206;47.310;19.502;2024-03-17T18:12:51;0.88;;;0.73;;
70635;SDS011;58206;47.310;19.502;2024-03-17T18:15:36;0.75;;;0.38;;
70635;SDS011;58206;47.310;19.502;2024-03-17T18:18:20;0.55;;;0.22;;
70635;SDS011;58206;47.310;19.502;2024-03-17T18:21:05;0.47;;;0.25;;
70635;SDS011;58206;47.310;19.502;2024-03-17T18:23:51;1.40;;;0.80;;
70635;SDS011;58206;47.310;19.502;2024-03-17T18:26:36;2.55;;;0.98;;
70635;SDS011;58206;47.310;19.502;2024-03-17T18:29:20;2.53;;;1.35;;
70635;SDS011;58206;47.310;19.502;2024-03-17T18:32:05;2.88;;;1.73;;
70635;SDS011;58206;47.310;19.502;2024-03-17T18:34:49;0.75;;;0.30;;
70635;SDS011;58206;47.310;19.502;2024-03-17T18:37:33;0.30;;;0.10;;
70635;SDS011;58206;47.310;19.502;2024-03-17T18:40:20;1.17;;;0.52;;
70635;SDS011;58206;47.310;19.502;2024-03-17T18:43:04;0.70;;;0.40;;
70635;SDS011;58206;47.310;19.502;2024-03-17T18:45:52;2.55;;;0.65;;
70635;SDS011;58206;47.310;19.502;2024-03-17T18:48:37;1.65;;;0.95;;
70635;SDS011;58206;47.310;19.502;2024-03-17T18:51:21;0.83;;;0.60;;
70635;SDS011;58206;47.310;19.502;2024-03-17T18:54:06;1.40;;;0.60;;
70635;SDS011;58206;47.310;19.502;2024-03-17T18:56:51;0.45;;;0.20;;
70635;SDS011;58206;47.310;19.502;2024-03-17T18:59:36;0.70;;;0.32;;
70635;SDS011;58206;47.310;19.502;2024-03-17T19:02:20;1.90;;;0.75;;
70635;SDS011;58206;47.310;19.502;2024-03-17T19:05:05;0.60;;;0.30;;
70635;SDS011;58206;47.310;19.502;2024-03-17T19:07:52;1.45;;;0.57;;
70635;SDS011;58206;47.310;19.502;2024-03-17T19:10:36;1.33;;;0.82;;
70635;SDS011;58206;47.310;19.502;2024-03-17T19:13:21;2.22;;;1.63;;
70635;SDS011;58206;47.310;19.502;2024-03-17T19:16:07;1.65;;;0.90;;
70635;SDS011;58206;47.310;19.502;2024-03-17T19:18:52;1.37;;;0.87;;
70635;SDS011;58206;47.310;19.502;2024-03-17T19:21:37;2.35;;;1.48;;
70635;SDS011;58206;47.310;19.502;2024-03-17T19:24:25;0.52;;;0.50;;
70635;SDS011;58206;47.310;19.502;2024-03-17T19:27:09;0.45;;;0.40;;
70635;SDS011;58206;47.310;19.502;2024-03-17T19:29:54;1.52;;;1.02;;
70635;SDS011;58206;47.310;19.502;2024-03-17T19:32:41;4.67;;;1.30;;
70635;SDS011;58206;47.310;19.502;2024-03-17T19:35:26;1.95;;;1.40;;
70635;SDS011;58206;47.310;19.502;2024-03-17T19:38:10;1.05;;;0.45;;
70635;SDS011;58206;47.310;19.502;2024-03-17T19:40:58;0.65;;;0.25;;
70635;SDS011;58206;47.310;19.502;2024-03-17T19:43:42;1.05;;;0.60;;
70635;SDS011;58206;47.310;19.502;2024-03-17T19:46:28;0.60;;;0.40;;
70635;SDS011;58206;47.310;19.502;2024-03-17T19:49:12;0.82;;;0.40;;
70635;SDS011;58206;47.310;19.502;2024-03-17T19:51:56;0.55;;;0.43;;
70635;SDS011;58206;47.310;19.502;2024-03-17T19:54:41;2.85;;;0.57;;
70635;SDS011;58206;47.310;19.502;2024-03-17T19:57:26;2.42;;;1.13;;
70635;SDS011;58206;47.310;19.502;2024-03-17T20:00:11;1.20;;;0.93;;
70635;SDS011;58206;47.310;19.502;2024-03-17T20:02:58;1.95;;;0.70;;
70635;SDS011;58206;47.310;19.502;2024-03-17T20:05:43;0.75;;;0.47;;
70635;SDS011;58206;47.310;19.502;2024-03-17T20:08:28;0.30;;;0.10;;
70635;SDS011;58206;47.310;19.502;2024-03-17T20:11:12;1.02;;;0.85;;
70635;SDS011;58206;47.310;19.502;2024-03-17T20:13:57;0.60;;;0.33;;
70635;SDS011;58206;47.310;19.502;2024-03-17T20:16:41;0.20;;;0.10;;
70635;SDS011;58206;47.310;19.502;2024-03-17T20:19:26;4.55;;;1.75;;
70635;SDS011;58206;47.310;19.502;2024-03-17T20:22:10;0.80;;;0.40;;
70635;SDS011;58206;47.310;19.502;2024-03-17T20:24:54;2.90;;;1.23;;